createdAt,value
2019-02-22T00:07:39.777Z,70.33
2019-02-22T00:10:41.236Z,61.75
2019-02-22T00:22:50.675Z,64.75
2019-02-22T00:28:18.557Z,68.33
2019-02-22T00:34:15.151Z,65.50
2019-02-22T00:37:17.658Z,67.75
2019-02-22T00:40:19.873Z,63.50
2019-02-22T00:43:24.142Z,66.00
2019-02-22T00:45:54.893Z,61.00
2019-02-22T00:48:27.609Z,64.75
2019-02-22T00:51:17.403Z,58.50
2019-02-22T00:53:48.140Z,64.00
2019-02-22T00:56:40.673Z,61.50
2019-02-22T00:59:42.044Z,69.75
2019-02-22T01:02:30.792Z,77.00
2019-02-22T01:14:50.786Z,65.50
2019-02-22T01:17:53.493Z,63.75
2019-02-22T01:20:40.437Z,69.25
2019-02-22T01:23:11.696Z,69.50
2019-02-22T01:29:28.929Z,65.50
2019-02-22T01:32:01.948Z,66.00
2019-02-22T01:35:09.922Z,69.75
2019-02-22T01:41:04.063Z,70.50
2019-02-22T01:43:50.790Z,67.25
2019-02-22T01:47:04.475Z,68.00
2019-02-22T01:50:08.177Z,67.75
2019-02-22T01:52:51.228Z,69.00
2019-02-22T02:02:07.940Z,71.25
2019-02-22T02:07:57.082Z,72.25
2019-02-22T02:13:45.123Z,66.67
2019-02-22T02:16:07.603Z,72.75
2019-02-22T02:25:33.640Z,65.00
2019-02-22T02:31:46.756Z,66.25
2019-02-22T02:34:16.718Z,65.67
2019-02-22T02:37:41.463Z,69.25
2019-02-22T02:52:35.652Z,60.50
2019-02-22T02:55:27.171Z,63.50
2019-02-22T02:58:41.293Z,64.50
2019-02-22T03:04:49.149Z,58.50
2019-02-22T03:07:22.193Z,72.25
2019-02-22T03:10:08.465Z,63.75
2019-02-22T03:13:13.011Z,63.25
2019-02-22T03:19:07.728Z,71.00
2019-02-22T03:21:41.142Z,63.00
2019-02-22T03:27:56.510Z,54.25
2019-02-22T03:30:27.609Z,54.75
2019-02-22T03:34:16.834Z,53.75
2019-02-22T03:36:51.430Z,53.50
2019-02-22T03:39:45.807Z,60.00
2019-02-22T03:42:35.716Z,54.25
2019-02-22T03:48:20.744Z,54.00
2019-02-22T03:50:51.645Z,52.25
2019-02-22T03:54:02.741Z,60.25
2019-02-22T04:00:28.249Z,55.00
2019-02-22T04:03:08.417Z,56.00
2019-02-22T04:05:58.174Z,56.00
2019-02-22T04:08:28.834Z,57.25
2019-02-22T04:11:45.544Z,48.25
2019-02-22T04:17:46.009Z,46.75
2019-02-22T04:20:50.092Z,45.25
2019-02-22T04:23:58.363Z,29.33
2019-02-22T04:27:11.139Z,25.67
2019-02-22T04:29:41.027Z,24.67
2019-02-22T04:32:10.825Z,17.33
2019-02-22T04:41:04.416Z,15.00
2019-02-22T04:47:20.058Z,12.00
2019-02-22T04:50:14.030Z,11.00
2019-02-22T04:53:29.296Z,12.00
2019-02-22T04:56:21.653Z,17.33
2019-02-22T05:01:52.109Z,18.00
2019-02-22T05:04:22.866Z,15.00
2019-02-22T05:06:52.691Z,12.00
2019-02-22T05:13:38.217Z,9.00
2019-02-22T05:16:08.501Z,9.00
2019-02-22T05:19:06.282Z,9.67
2019-02-22T05:34:30.355Z,9.00
2019-02-22T05:37:24.405Z,11.00
2019-02-22T05:43:24.462Z,9.00
2019-02-22T05:45:56.043Z,11.00
2019-02-22T05:51:31.859Z,8.00
2019-02-22T05:54:21.449Z,9.00
2019-02-22T06:00:38.150Z,6.67
2019-02-22T06:03:13.255Z,11.33
2019-02-22T06:11:55.083Z,12.67
2019-02-22T06:20:34.126Z,11.00
2019-02-22T06:26:05.702Z,11.00
2019-02-22T06:28:36.881Z,10.33
2019-02-22T06:31:07.612Z,12.00
2019-02-22T06:48:49.276Z,13.33
2019-02-22T06:51:58.192Z,9.00
2019-02-22T06:54:48.073Z,11.00
2019-02-22T06:57:20.209Z,10.75
2019-02-22T06:59:54.102Z,10.00
2019-02-22T07:05:28.787Z,11.75
2019-02-22T07:11:05.591Z,10.33
2019-02-22T07:14:09.939Z,13.50
2019-02-22T07:16:40.737Z,8.67
2019-02-22T07:19:10.573Z,11.67
2019-02-22T07:21:52.160Z,9.00
2019-02-22T07:24:37.665Z,12.50
2019-02-22T07:27:46.694Z,12.00
2019-02-22T07:30:56.635Z,9.00
2019-02-22T07:33:40.184Z,10.67
2019-02-22T07:36:53.697Z,11.50
2019-02-22T07:39:29.513Z,11.00
2019-02-22T07:42:24.680Z,7.75
2019-02-22T07:57:44.033Z,9.00
2019-02-22T08:04:06.961Z,10.50
2019-02-22T08:07:13.216Z,9.00
2019-02-22T08:09:36.257Z,8.33
2019-02-22T08:13:02.470Z,7.00
2019-02-22T08:15:24.466Z,7.67
2019-02-22T08:18:18.229Z,6.33
2019-02-22T08:24:26.081Z,6.00
2019-02-22T08:27:31.752Z,6.00
2019-02-22T08:30:36.620Z,4.67
2019-02-22T08:33:04.109Z,9.00
2019-02-22T08:36:07.250Z,7.00
2019-02-22T08:38:31.893Z,6.00
2019-02-22T08:43:49.509Z,7.00
2019-02-22T08:46:25.313Z,8.33
2019-02-22T08:52:23.062Z,7.80
2019-02-22T08:55:36.748Z,9.00
2019-02-22T09:01:14.057Z,9.00
2019-02-22T09:04:06.121Z,10.33
2019-02-22T09:06:40.173Z,9.00
2019-02-22T09:12:34.509Z,8.80
2019-02-22T09:15:24.643Z,9.00
2019-02-22T09:18:35.972Z,7.80
2019-02-22T09:24:27.906Z,6.00
2019-02-22T09:27:20.554Z,9.00
2019-02-22T09:33:39.961Z,6.67
2019-02-22T09:36:13.137Z,9.00
2019-02-22T09:42:16.373Z,7.00
2019-02-22T09:48:33.982Z,4.00
2019-02-22T09:51:24.270Z,7.00
2019-02-22T09:54:19.822Z,4.00
2019-02-22T09:57:23.168Z,7.00
2019-02-22T10:00:16.708Z,9.00
2019-02-22T10:08:52.441Z,3.40
2019-02-22T10:11:27.832Z,4.00
2019-02-22T10:14:06.993Z,4.00
2019-02-22T10:16:39.767Z,4.00
2019-02-22T10:19:11.873Z,3.60
2019-02-22T10:21:43.580Z,3.20
2019-02-22T10:24:15.294Z,4.00
2019-02-22T10:26:48.963Z,4.00
2019-02-22T10:29:23.059Z,2.80
2019-02-22T10:31:56.486Z,2.40
2019-02-22T10:34:27.203Z,2.33
2019-02-22T10:37:03.312Z,2.33
2019-02-22T10:39:53.993Z,3.60
2019-02-22T10:42:32.034Z,4.00
2019-02-22T10:45:13.283Z,4.20
2019-02-22T10:47:49.590Z,2.40
2019-02-22T10:50:21.255Z,2.60
2019-02-22T10:53:07.003Z,4.00
2019-02-22T10:55:38.309Z,3.40
2019-02-22T10:58:09.984Z,6.20
2019-02-22T11:00:41.145Z,3.33
2019-02-22T11:03:21.225Z,4.67
2019-02-22T11:06:02.009Z,5.33
2019-02-22T11:08:39.537Z,5.67
2019-02-22T11:11:16.081Z,5.40
2019-02-22T11:13:50.110Z,7.40
2019-02-22T11:16:43.986Z,4.33
2019-02-22T11:19:15.859Z,6.67
2019-02-22T11:21:48.950Z,7.00
2019-02-22T11:24:33.919Z,8.33
2019-02-22T11:27:26.573Z,6.00
2019-02-22T11:30:08.351Z,4.00
2019-02-22T11:35:41.013Z,5.60
2019-02-22T11:38:19.074Z,6.67
2019-02-22T11:40:57.968Z,9.80
2019-02-22T11:43:32.610Z,6.33
2019-02-22T11:46:04.475Z,8.50
2019-02-22T11:48:44.836Z,6.00
2019-02-22T11:51:18.805Z,9.33
2019-02-22T11:53:53.474Z,8.33
2019-02-22T11:56:30.379Z,6.00
2019-02-22T11:59:11.243Z,6.00
2019-02-22T12:01:45.363Z,8.20
2019-02-22T12:04:23.406Z,6.33
2019-02-22T12:06:56.963Z,9.00
2019-02-22T12:09:29.945Z,7.00
2019-02-22T12:12:07.744Z,9.00
2019-02-22T12:14:51.499Z,9.00
2019-02-22T12:17:37.535Z,7.00
2019-02-22T12:20:14.978Z,8.33
2019-02-22T12:22:47.299Z,6.33
2019-02-22T12:25:31.067Z,7.00
2019-02-22T12:28:11.788Z,7.67
2019-02-22T12:30:48.698Z,6.67
2019-02-22T12:33:27.349Z,7.00
2019-02-22T12:36:06.177Z,9.67
2019-02-22T12:38:38.318Z,9.00
2019-02-22T12:41:18.983Z,7.00
2019-02-22T12:44:00.013Z,9.50
2019-02-22T12:46:38.601Z,9.00
2019-02-22T12:49:14.612Z,10.00
2019-02-22T12:51:53.219Z,9.33
2019-02-22T12:54:44.494Z,6.80
2019-02-22T12:57:29.573Z,7.00
2019-02-22T13:00:02.647Z,8.33
2019-02-22T13:02:33.445Z,9.00
2019-02-22T13:05:08.434Z,11.67
2019-02-22T13:07:48.262Z,6.67
2019-02-22T13:10:20.330Z,8.20
2019-02-22T13:12:55.638Z,7.67
2019-02-22T13:15:26.486Z,7.00
2019-02-22T13:18:03.037Z,9.67
2019-02-22T13:20:39.642Z,6.40
2019-02-22T13:23:11.417Z,7.00
2019-02-22T13:25:42.270Z,6.33
2019-02-22T13:28:14.187Z,15.00
2019-02-22T13:30:57.488Z,7.00
2019-02-22T13:33:33.856Z,9.00
2019-02-22T13:36:06.853Z,10.25
2019-02-22T13:38:40.692Z,4.00
2019-02-22T13:41:14.895Z,7.00
2019-02-22T13:43:46.516Z,6.00
2019-02-22T13:46:21.112Z,9.00
2019-02-22T13:48:53.199Z,10.25
2019-02-22T13:51:28.851Z,9.00
2019-02-22T13:54:05.819Z,10.00
2019-02-22T13:56:39.113Z,9.00
2019-02-22T13:59:10.247Z,9.00
2019-02-22T14:01:45.845Z,11.00
2019-02-22T14:04:20.793Z,10.50
2019-02-22T14:06:52.482Z,13.67
2019-02-22T14:09:36.614Z,9.00
2019-02-22T14:12:16.748Z,10.25
2019-02-22T14:14:54.437Z,9.00
2019-02-22T14:17:31.045Z,11.00
2019-02-22T14:20:02.952Z,9.00
2019-02-22T14:22:33.556Z,8.33
2019-02-22T14:25:03.312Z,9.33
2019-02-22T14:27:34.192Z,11.67
2019-02-22T14:30:06.302Z,16.25
2019-02-22T14:32:37.827Z,11.00
2019-02-22T14:35:08.562Z,9.67
2019-02-22T14:37:40.917Z,13.33
2019-02-22T14:40:19.168Z,12.00
2019-02-22T14:42:51.933Z,10.67
2019-02-22T14:45:27.654Z,11.50
2019-02-22T14:48:01.680Z,14.25
2019-02-22T14:50:33.240Z,10.25
2019-02-22T14:53:03.187Z,17.00
2019-02-22T14:55:35.196Z,13.33
2019-02-22T15:02:01.592Z,11.33
2019-02-22T15:04:43.642Z,12.00
2019-02-22T15:07:31.858Z,12.75
2019-02-22T15:10:18.469Z,12.25
2019-02-22T15:12:52.060Z,13.25
2019-02-22T15:15:34.293Z,9.67
2019-02-22T15:18:07.480Z,10.00
2019-02-22T15:20:45.097Z,15.00
2019-02-22T15:23:18.452Z,12.00
2019-02-22T15:25:50.645Z,12.00
2019-02-22T15:28:26.260Z,12.67
2019-02-22T15:31:00.817Z,16.33
2019-02-22T15:33:43.387Z,16.33
2019-02-22T15:36:16.223Z,11.33
2019-02-22T15:38:54.936Z,15.00
2019-02-22T15:41:25.411Z,17.67
2019-02-22T15:44:18.636Z,10.67
2019-02-22T15:46:49.355Z,16.33
2019-02-22T15:49:19.628Z,12.67
2019-02-22T15:51:54.952Z,14.33
2019-02-22T15:54:40.763Z,13.67
2019-02-22T15:57:11.762Z,14.67
2019-02-22T15:59:43.170Z,15.00
2019-02-22T16:02:20.236Z,13.33
2019-02-22T16:05:14.819Z,12.00
2019-02-22T16:07:51.385Z,13.33
2019-02-22T16:10:44.080Z,14.67
2019-02-22T16:13:19.206Z,9.00
2019-02-22T16:15:57.114Z,11.33
2019-02-22T16:18:29.871Z,17.00
2019-02-22T16:21:10.635Z,11.00
2019-02-22T16:24:09.169Z,14.00
2019-02-22T16:26:42.384Z,13.33
2019-02-22T16:29:38.183Z,11.33
2019-02-22T16:32:29.421Z,12.33
2019-02-22T16:35:06.183Z,18.67
2019-02-22T16:37:44.393Z,14.67
2019-02-22T16:40:20.937Z,18.67
2019-02-22T16:42:53.234Z,14.00
2019-02-22T16:45:32.400Z,12.33
2019-02-22T16:50:57.014Z,17.33
2019-02-22T16:53:34.715Z,16.00
2019-02-22T17:03:08.220Z,13.00
2019-02-22T17:05:40.419Z,17.67
2019-02-22T17:08:30.593Z,20.33
2019-02-22T17:11:04.016Z,18.00
2019-02-22T17:13:35.484Z,15.00
2019-02-22T17:16:11.580Z,17.33
2019-02-22T17:18:48.430Z,16.67
2019-02-22T17:21:35.399Z,17.33
2019-02-22T17:24:08.225Z,20.00
2019-02-22T17:26:51.390Z,16.33
2019-02-22T17:29:23.270Z,14.00
2019-02-22T17:31:57.574Z,19.00
2019-02-22T17:34:32.952Z,15.00
2019-02-22T17:37:04.894Z,19.00
2019-02-22T17:39:36.276Z,13.00
2019-02-22T17:42:12.779Z,15.00
2019-02-22T17:44:52.745Z,19.00
2019-02-22T17:47:32.109Z,15.33
2019-02-22T17:50:12.790Z,14.33
2019-02-22T17:52:50.077Z,19.00
2019-02-22T17:55:32.949Z,17.00
2019-02-22T17:58:23.930Z,15.67
2019-02-22T18:00:48.029Z,12.00
2019-02-22T18:03:21.803Z,15.67
2019-02-22T18:05:58.096Z,15.00
2019-02-22T18:08:40.593Z,15.00
2019-02-22T18:11:11.226Z,13.67
2019-02-22T18:13:51.327Z,13.50
2019-02-22T18:16:22.802Z,12.67
2019-02-22T18:19:07.246Z,13.33
2019-02-22T18:21:48.947Z,13.67
2019-02-22T18:24:33.583Z,13.67
2019-02-22T18:27:20.119Z,14.33
2019-02-22T18:30:24.052Z,10.00
2019-02-22T18:33:03.799Z,14.67
2019-02-22T18:35:41.829Z,14.50
2019-02-22T18:38:25.981Z,13.33
2019-02-22T18:41:01.452Z,10.00
2019-02-22T18:43:39.098Z,12.00
2019-02-22T18:46:13.346Z,12.00
2019-02-22T18:51:49.296Z,10.00
2019-02-22T18:54:21.174Z,10.00
2019-02-22T18:56:57.927Z,11.00
2019-02-22T18:59:39.433Z,12.00
2019-02-22T19:02:16.844Z,8.67
2019-02-22T19:04:56.065Z,8.67
2019-02-22T19:07:36.504Z,7.20
2019-02-22T19:10:19.868Z,12.80
2019-02-22T19:12:56.848Z,7.75
2019-02-22T19:15:47.660Z,9.50
2019-02-22T19:18:11.441Z,10.00
2019-02-22T19:20:48.685Z,8.00
2019-02-22T19:23:27.359Z,12.00
2019-02-22T19:26:00.785Z,9.60
2019-02-22T19:28:35.579Z,10.25
2019-02-22T19:31:10.350Z,12.33
2019-02-22T19:33:49.985Z,13.00
2019-02-22T19:36:24.811Z,9.75
2019-02-22T19:39:01.518Z,18.33
2019-02-22T19:41:38.151Z,15.67
2019-02-22T19:44:15.078Z,9.75
2019-02-22T19:46:50.154Z,13.33
2019-02-22T19:49:25.603Z,13.00
2019-02-22T19:52:04.029Z,13.33
2019-02-22T19:54:50.734Z,13.33
2019-02-22T19:57:27.953Z,10.67
2019-02-22T20:00:09.566Z,12.67
2019-02-22T20:02:48.505Z,13.33
2019-02-22T20:05:29.383Z,17.33
2019-02-22T20:08:02.743Z,15.00
2019-02-22T20:10:40.938Z,12.67
2019-02-22T20:13:19.973Z,16.33
2019-02-22T20:15:54.717Z,18.33
2019-02-22T20:18:31.446Z,14.33
2019-02-22T20:21:07.689Z,21.67
2019-02-22T20:23:42.838Z,17.67
2019-02-22T20:26:20.168Z,16.67
2019-02-22T20:28:58.659Z,21.33
2019-02-22T20:31:32.999Z,12.67
2019-02-22T20:34:14.852Z,17.25
2019-02-22T20:36:47.252Z,17.67
2019-02-22T20:39:24.510Z,14.00
2019-02-22T20:42:05.485Z,16.33
2019-02-22T20:44:50.362Z,21.33
2019-02-22T20:47:35.716Z,14.67
2019-02-22T20:50:12.049Z,16.67
2019-02-22T20:52:58.112Z,16.00
2019-02-22T20:55:35.153Z,13.33
2019-02-22T20:58:18.734Z,15.33
2019-02-22T21:00:50.888Z,15.33
2019-02-22T21:03:26.893Z,13.33
2019-02-22T21:06:15.157Z,18.00
2019-02-22T21:08:48.327Z,16.67
2019-02-22T21:11:25.874Z,15.33
2019-02-22T21:14:07.899Z,13.33
2019-02-22T21:16:40.883Z,16.00
2019-02-22T21:19:16.563Z,16.67
2019-02-22T21:21:52.775Z,15.33
2019-02-22T21:24:31.782Z,15.33
2019-02-22T21:27:04.568Z,18.00
2019-02-22T21:29:39.150Z,21.67
2019-02-22T21:32:12.406Z,18.00
2019-02-22T21:34:45.414Z,14.67
2019-02-22T21:37:21.733Z,13.33
2019-02-22T21:39:53.958Z,12.00
2019-02-22T21:42:40.428Z,15.33
2019-02-22T21:45:21.951Z,14.67
2019-02-22T21:47:55.448Z,12.00
2019-02-22T21:50:33.415Z,14.00
2019-02-22T21:53:04.614Z,16.00
2019-02-22T21:55:37.421Z,15.00
2019-02-22T21:58:07.977Z,15.33
2019-02-22T22:00:39.201Z,14.00
2019-02-22T22:03:14.767Z,15.00
2019-02-22T22:05:58.292Z,19.33
2019-02-22T22:08:34.491Z,11.00
2019-02-22T22:17:05.206Z,16.67
2019-02-22T22:19:36.277Z,15.67
2019-02-22T22:22:48.496Z,13.00
2019-02-22T22:25:20.754Z,18.33
2019-02-22T22:27:52.290Z,15.00
2019-02-22T22:33:28.162Z,16.33
2019-02-22T22:36:03.070Z,19.00
2019-02-22T22:38:55.024Z,13.00
2019-02-22T22:41:29.198Z,15.00
2019-02-22T22:44:02.220Z,18.33
2019-02-22T22:46:36.961Z,21.33
2019-02-22T22:49:08.144Z,16.67
2019-02-22T22:51:39.907Z,15.00
2019-02-22T22:54:14.324Z,20.00
2019-02-22T22:56:47.979Z,16.33
2019-02-22T22:59:20.582Z,18.33
2019-02-22T23:01:51.744Z,17.00
2019-02-22T23:04:42.205Z,14.33
2019-02-22T23:07:20.578Z,15.00
2019-02-22T23:10:10.456Z,21.67
2019-02-22T23:15:52.212Z,13.67
2019-02-22T23:19:02.337Z,15.00
2019-02-22T23:22:10.946Z,19.67
2019-02-22T23:28:18.142Z,14.33
2019-02-22T23:30:38.457Z,19.33
2019-02-22T23:34:00.396Z,17.67
2019-02-22T23:36:21.260Z,20.33
2019-02-22T23:39:10.786Z,11.67
2019-02-22T23:41:43.576Z,21.00
2019-02-22T23:44:41.844Z,17.00
2019-02-22T23:47:38.020Z,21.33
2019-02-22T23:50:27.797Z,13.00
2019-02-22T23:53:01.703Z,14.00
2019-02-22T23:55:34.250Z,15.67
2019-02-22T23:58:23.821Z,13.67
